createdAt,value
2019-06-15T00:08:55.090Z,22.30
2019-06-15T00:11:24.663Z,22.30
2019-06-15T00:13:54.430Z,22.20
2019-06-15T00:26:20.987Z,22.20
2019-06-15T00:28:50.518Z,22.20
2019-06-15T00:31:19.895Z,22.20
2019-06-15T00:33:49.374Z,22.20
2019-06-15T00:41:20.185Z,22.20
2019-06-15T00:46:18.855Z,22.10
2019-06-15T00:51:17.504Z,22.10
2019-06-15T00:56:16.450Z,22.10
2019-06-15T00:58:45.911Z,22.10
2019-06-15T01:01:15.484Z,22.10
2019-06-15T01:03:45.300Z,22.10
2019-06-15T01:06:14.749Z,22.20
2019-06-15T01:08:44.320Z,22.20
2019-06-15T01:18:41.439Z,22.20
2019-06-15T01:21:11.792Z,22.30
2019-06-15T01:23:41.482Z,22.30
2019-06-15T01:26:11.858Z,22.30
2019-06-15T01:28:41.342Z,22.20
2019-06-15T01:31:12.563Z,22.20
2019-06-15T01:38:40.758Z,22.10
2019-06-15T01:41:10.396Z,22.10
2019-06-15T01:43:40.451Z,22.10
2019-06-15T01:48:39.181Z,22.10
2019-06-15T01:53:37.820Z,22.10
2019-06-15T01:56:07.433Z,22.10
2019-06-15T02:03:35.155Z,22.00
2019-06-15T02:06:04.685Z,22.00
2019-06-15T02:11:03.081Z,22.00
2019-06-15T02:23:30.055Z,21.80
2019-06-15T02:25:59.628Z,21.70
2019-06-15T02:35:56.452Z,21.50
2019-06-15T02:38:25.959Z,21.80
2019-06-15T02:40:55.526Z,21.50
2019-06-15T02:48:24.763Z,21.40
2019-06-15T02:53:23.578Z,21.40
2019-06-15T02:55:53.142Z,21.40
2019-06-15T03:06:06.133Z,21.10
2019-06-15T03:11:05.287Z,21.00
2019-06-15T03:18:33.646Z,20.90
2019-06-15T03:23:33.251Z,20.90
2019-06-15T03:26:05.738Z,20.90
2019-06-15T03:31:03.131Z,20.90
2019-06-15T03:33:32.945Z,20.90
2019-06-15T03:41:00.997Z,20.80
2019-06-15T03:45:59.923Z,20.80
2019-06-15T03:48:29.709Z,20.70
2019-06-15T03:50:59.239Z,20.70
2019-06-15T03:55:57.695Z,20.70
2019-06-15T03:58:27.131Z,20.50
2019-06-15T04:01:14.910Z,20.60
2019-06-15T04:03:44.585Z,20.50
2019-06-15T04:06:14.187Z,20.60
2019-06-15T04:08:43.697Z,20.60
2019-06-15T04:11:14.156Z,20.60
2019-06-15T04:18:41.689Z,20.50
2019-06-15T04:21:12.171Z,20.60
2019-06-15T04:33:38.726Z,20.70
2019-06-15T04:36:09.050Z,20.70
2019-06-15T04:38:38.664Z,20.70
2019-06-15T04:41:08.110Z,20.70
2019-06-15T04:43:39.292Z,20.80
2019-06-15T04:46:08.665Z,20.90
2019-06-15T04:48:38.228Z,21.00
2019-06-15T05:06:03.702Z,21.50
2019-06-15T05:08:33.336Z,21.60
2019-06-15T05:13:33.244Z,21.80
2019-06-15T05:18:32.736Z,22.10
2019-06-15T05:21:02.178Z,22.20
2019-06-15T05:26:01.034Z,22.40
2019-06-15T05:28:30.787Z,22.40
2019-06-15T05:31:00.222Z,22.30
2019-06-15T05:38:28.224Z,22.30
2019-06-15T05:40:57.771Z,22.30
2019-06-15T05:45:56.564Z,22.40
2019-06-15T05:48:26.036Z,22.50
2019-06-15T05:50:58.529Z,22.60
2019-06-15T05:53:26.918Z,22.60
2019-06-15T05:55:56.378Z,22.70
2019-06-15T05:58:25.983Z,22.80
2019-06-15T06:03:24.783Z,23.00
2019-06-15T06:15:50.970Z,23.30
2019-06-15T06:18:20.452Z,23.40
2019-06-15T06:20:50.035Z,23.40
2019-06-15T06:25:48.733Z,23.50
2019-06-15T06:30:47.647Z,23.50
2019-06-15T06:33:17.063Z,23.60
2019-06-15T06:35:46.509Z,23.60
2019-06-15T06:38:16.204Z,23.70
2019-06-15T06:40:45.786Z,23.70
2019-06-15T06:43:15.310Z,23.70
2019-06-15T06:45:45.211Z,23.70
2019-06-15T06:48:15.014Z,23.80
2019-06-15T06:50:44.930Z,23.80
2019-06-15T06:55:43.837Z,23.90
2019-06-15T06:58:13.584Z,24.00
2019-06-15T07:00:43.109Z,24.00
2019-06-15T07:03:13.234Z,24.00
2019-06-15T07:08:12.879Z,24.00
2019-06-15T07:10:42.318Z,23.90
2019-06-15T07:13:12.936Z,23.90
2019-06-15T07:15:42.378Z,23.90
2019-06-15T07:18:12.936Z,24.00
2019-06-15T07:20:42.397Z,24.00
2019-06-15T07:23:13.155Z,24.00
2019-06-15T07:25:43.006Z,24.10
2019-06-15T07:28:13.185Z,24.20
2019-06-15T07:30:42.647Z,24.10
2019-06-15T07:33:13.587Z,24.10
2019-06-15T07:35:43.215Z,24.10
2019-06-15T07:38:13.231Z,24.10
2019-06-15T07:45:41.927Z,24.10
2019-06-15T07:48:11.359Z,24.20
2019-06-15T07:58:23.711Z,24.30
2019-06-15T08:03:09.111Z,24.40
2019-06-15T08:05:38.611Z,24.50
2019-06-15T08:08:08.123Z,24.50
2019-06-15T08:10:38.105Z,24.50
2019-06-15T08:13:07.646Z,24.60
2019-06-15T08:15:37.364Z,24.60
2019-06-15T08:18:09.707Z,24.60
2019-06-15T08:20:38.450Z,24.70
2019-06-15T08:23:08.064Z,24.80
2019-06-15T08:25:37.596Z,24.90
2019-06-15T08:28:07.630Z,24.90
2019-06-15T08:30:43.739Z,24.80
2019-06-15T08:33:13.415Z,24.80
2019-06-15T08:38:13.192Z,25.00
2019-06-15T08:40:42.707Z,25.00
2019-06-15T08:43:13.554Z,25.10
2019-06-15T08:45:43.347Z,25.40
2019-06-15T08:48:13.315Z,25.40
2019-06-15T08:53:12.992Z,25.10
2019-06-15T08:55:42.459Z,25.30
2019-06-15T08:58:13.293Z,25.20
2019-06-15T09:05:42.382Z,25.30
2019-06-15T09:08:12.669Z,25.30
2019-06-15T09:10:42.303Z,25.10
2019-06-15T09:13:13.701Z,25.00
2019-06-15T09:15:46.811Z,25.00
2019-06-15T09:18:16.411Z,25.10
2019-06-15T09:20:46.289Z,25.10
2019-06-15T09:23:16.163Z,25.20
2019-06-15T09:25:45.559Z,25.40
2019-06-15T09:28:15.276Z,25.40
2019-06-15T09:33:14.350Z,25.50
2019-06-15T09:35:44.150Z,25.50
2019-06-15T09:38:13.585Z,25.80
2019-06-15T09:40:43.224Z,25.80
2019-06-15T09:43:13.375Z,25.90
2019-06-15T09:45:43.380Z,25.70
2019-06-15T09:48:13.438Z,25.70
2019-06-15T09:50:43.171Z,25.60
2019-06-15T09:53:13.419Z,25.60
2019-06-15T09:55:43.497Z,25.60
2019-06-15T09:58:13.747Z,25.50
2019-06-15T10:00:43.539Z,25.50
2019-06-15T10:03:13.489Z,25.50
2019-06-15T10:05:43.289Z,25.60
2019-06-15T10:08:13.499Z,25.60
2019-06-15T10:10:43.295Z,25.60
2019-06-15T10:13:13.446Z,25.50
2019-06-15T10:15:43.476Z,25.50
2019-06-15T10:18:13.465Z,25.60
2019-06-15T10:20:43.675Z,25.50
2019-06-15T10:23:13.734Z,25.50
2019-06-15T10:25:43.305Z,25.50
2019-06-15T10:28:13.548Z,25.70
2019-06-15T10:30:43.274Z,25.70
2019-06-15T10:33:13.532Z,25.60
2019-06-15T10:35:43.221Z,25.50
2019-06-15T10:38:13.600Z,25.50
2019-06-15T10:40:43.396Z,25.80
2019-06-15T10:45:42.564Z,25.80
2019-06-15T10:48:13.742Z,25.90
2019-06-15T10:50:43.478Z,25.90
2019-06-15T10:53:13.612Z,25.90
2019-06-15T10:55:43.566Z,25.90
2019-06-15T10:58:13.795Z,25.80
2019-06-15T11:01:02.984Z,25.90
2019-06-15T11:06:01.932Z,25.90
2019-06-15T11:08:31.379Z,26.10
2019-06-15T11:11:10.062Z,26.30
2019-06-15T11:13:39.803Z,26.40
2019-06-15T11:16:09.689Z,26.50
2019-06-15T11:18:39.726Z,26.70
2019-06-15T11:21:09.607Z,26.80
2019-06-15T11:26:08.567Z,26.90
2019-06-15T11:31:07.683Z,26.70
2019-06-15T11:36:06.759Z,26.60
2019-06-15T11:41:05.951Z,26.60
2019-06-15T11:43:35.687Z,26.60
2019-06-15T11:46:05.655Z,26.80
2019-06-15T11:58:32.495Z,27.40
2019-06-15T12:01:02.495Z,27.50
2019-06-15T12:03:32.445Z,27.40
2019-06-15T12:06:02.444Z,27.50
2019-06-15T12:11:01.405Z,27.80
2019-06-15T12:16:01.069Z,27.70
2019-06-15T12:20:59.859Z,27.90
2019-06-15T12:25:58.784Z,27.70
2019-06-15T12:28:28.601Z,27.70
2019-06-15T12:30:58.598Z,27.70
2019-06-15T12:33:28.362Z,27.70
2019-06-15T12:35:57.874Z,27.40
2019-06-15T12:38:27.563Z,27.20
2019-06-15T12:40:57.173Z,27.00
2019-06-15T12:43:26.964Z,26.70
2019-06-15T12:45:57.889Z,26.60
2019-06-15T12:48:27.782Z,26.60
2019-06-15T12:50:57.714Z,26.70
2019-06-15T12:53:27.770Z,26.60
2019-06-15T12:55:57.550Z,26.60
2019-06-15T13:01:02.785Z,26.80
2019-06-15T13:05:56.763Z,27.00
2019-06-15T13:08:26.677Z,27.30
2019-06-15T13:23:22.710Z,27.70
2019-06-15T13:25:52.732Z,27.70
2019-06-15T13:30:51.590Z,27.80
2019-06-15T13:38:19.671Z,27.40
2019-06-15T14:00:42.711Z,26.20
2019-06-15T14:03:12.990Z,26.30
2019-06-15T14:05:42.806Z,26.30
2019-06-15T14:08:13.939Z,26.50
2019-06-15T14:10:44.098Z,26.70
2019-06-15T14:13:13.877Z,27.10
2019-06-15T14:15:43.737Z,27.60
2019-06-15T14:18:14.002Z,27.90
2019-06-15T14:20:43.720Z,28.30
2019-06-15T14:23:13.786Z,28.80
2019-06-15T14:25:43.530Z,28.90
2019-06-15T14:28:13.989Z,28.80
2019-06-15T14:30:43.855Z,28.60
2019-06-15T14:33:13.780Z,28.30
2019-06-15T14:35:44.197Z,28.20
2019-06-15T14:38:14.039Z,28.20
2019-06-15T14:40:43.753Z,27.80
2019-06-15T14:43:13.775Z,27.60
2019-06-15T14:45:55.789Z,27.30
2019-06-15T14:48:14.935Z,27.00
2019-06-15T14:50:44.784Z,26.90
2019-06-15T14:53:14.187Z,26.60
2019-06-15T14:55:45.844Z,26.30
2019-06-15T14:58:17.101Z,26.10
2019-06-15T15:00:46.696Z,25.90
2019-06-15T15:03:17.147Z,25.80
2019-06-15T15:05:46.863Z,25.60
2019-06-15T15:08:16.445Z,25.50
2019-06-15T15:10:45.920Z,25.40
2019-06-15T15:13:15.644Z,25.30
2019-06-15T15:15:46.842Z,25.20
2019-06-15T15:18:16.618Z,25.10
2019-06-15T15:20:48.421Z,25.00
2019-06-15T15:25:50.376Z,25.00
2019-06-15T15:28:19.881Z,24.90
2019-06-15T15:33:18.920Z,24.80
2019-06-15T15:45:46.035Z,24.80
2019-06-15T16:25:48.535Z,25.60
2019-06-15T16:28:19.850Z,25.70
2019-06-15T16:31:05.217Z,25.50
2019-06-15T17:45:46.732Z,24.40
2019-06-15T18:50:46.815Z,23.50
2019-06-15T18:53:16.356Z,23.30
2019-06-15T18:58:17.868Z,23.10
2019-06-15T19:00:47.362Z,23.00
2019-06-15T19:15:46.669Z,22.90
2019-06-15T19:18:17.746Z,22.80
2019-06-15T19:23:16.626Z,22.80
2019-06-15T19:33:16.923Z,22.70
2019-06-15T19:35:46.690Z,22.70
2019-06-15T19:38:16.502Z,22.70
2019-06-15T19:40:46.260Z,22.60
2019-06-15T19:43:16.450Z,22.70
2019-06-15T19:45:46.154Z,22.60
2019-06-15T19:48:17.054Z,22.50
2019-06-15T19:50:47.075Z,22.50
2019-06-15T19:53:17.187Z,22.50
2019-06-15T19:55:47.126Z,22.50
2019-06-15T19:58:16.789Z,22.50
2019-06-15T20:00:46.799Z,22.50
2019-06-15T20:03:16.974Z,22.60
2019-06-15T20:05:46.587Z,22.60
2019-06-15T20:08:17.622Z,22.60
2019-06-15T20:10:47.668Z,22.60
2019-06-15T20:13:17.252Z,22.60
2019-06-15T20:15:47.185Z,22.60
2019-06-15T20:18:17.667Z,22.60
2019-06-15T20:20:47.521Z,22.60
2019-06-15T20:23:17.313Z,22.50
2019-06-15T20:25:47.160Z,22.40
2019-06-15T20:28:17.296Z,22.40
2019-06-15T20:30:47.649Z,22.40
2019-06-15T20:33:17.319Z,22.30
2019-06-15T20:35:47.417Z,22.10
2019-06-15T20:38:17.438Z,22.00
2019-06-15T20:45:47.663Z,21.90
2019-06-15T20:48:17.286Z,21.90
2019-06-15T20:50:47.329Z,21.80
2019-06-15T20:53:17.270Z,21.80
2019-06-15T20:55:47.106Z,21.80
2019-06-15T20:58:17.186Z,21.70
2019-06-15T21:00:47.792Z,21.70
2019-06-15T21:03:17.509Z,21.60
2019-06-15T21:05:47.860Z,21.70
2019-06-15T21:08:17.404Z,21.60
2019-06-15T21:10:47.179Z,21.60
2019-06-15T21:13:17.090Z,23.10
2019-06-15T21:15:47.563Z,21.60
2019-06-15T21:18:17.341Z,21.40
2019-06-15T21:20:47.339Z,21.50
2019-06-15T21:23:18.251Z,21.50
2019-06-15T21:25:47.820Z,21.50
2019-06-15T21:28:17.314Z,21.50
2019-06-15T21:30:47.419Z,21.50
2019-06-15T21:33:17.307Z,21.30
2019-06-15T21:35:52.357Z,21.30
2019-06-15T21:38:18.318Z,21.30
2019-06-15T21:40:47.861Z,21.20
2019-06-15T21:43:16.644Z,21.10
2019-06-15T21:48:16.413Z,21.10
2019-06-15T21:50:47.301Z,21.00
2019-06-15T21:53:17.396Z,22.60
2019-06-15T21:55:47.453Z,20.90
2019-06-15T23:05:57.156Z,16.00
2019-06-15T23:08:26.919Z,15.70
2019-06-15T23:15:56.503Z,15.60
2019-06-15T23:18:26.408Z,15.60
2019-06-15T23:20:56.927Z,15.60
2019-06-15T23:25:56.596Z,15.70
2019-06-15T23:28:27.120Z,15.70
2019-06-15T23:30:56.807Z,15.80
2019-06-15T23:33:26.722Z,15.80
2019-06-15T23:36:06.201Z,15.90
